Belorechensk, Russia
Current Conditions -  °F | °C
As of 12:00 AM on Friday 24 Oct 2014 (Local Time) from URKK Reporting Station
Haze Haze  
Wind Chill: 42°   Ceiling: 400
Heat Index: 48°   Visibility: 3mi
Dew Point: 46°   Wind: 16mph
Humidity: 93%   Direction: 50°NE
Pressure: 29.97"   Gusts: NA
Location:  44.77°N, 39.87°E
Report Text: URKK 232100Z 05007MPS 5000 BR OVC004 09/08 Q1015 TEMPO 0500 FGBKN002 RMK QBB130 OBST OBSC QFE758 SC070
Loading
Personal Weather Stations






























Interactive Weather Map
Tropical Storm Tracking
New forecast layout! Learn more

10-Day Weather Forecast

Advertisements
Track Severe Weather on mobile